KBUR/BUR METAR and TAF weather

Enter ICAO airport designator
Station Type Date Time Source
KBUR METAR 2020/09/18 23:53 UTC NOAA

KBUR 182353Z 16006KT 10SM FU CLR 35/M01 A2982 RMK AO2 SLP084 T03501006 10367 20311 56013 $


Station Type Date Time Source
KBUR Decoded METAR 2020/09/18 23:53 UTC NOAA

BURBANK-GLENDALE-PASADENA, CA, United States (KBUR) 34-12N 118-22W 217M
Sep 18, 2020 - 07:53 PM EDT / 2020.09.18 2353 UTC
Wind: from the SSE (160 degrees) at 7 MPH (6 KT):0
Visibility: 10 mile(s):0
Sky conditions: clear
Weather: smoke
Temperature: 95.0 F (35.0 C)
Dew Point: 30.9 F (-0.6 C)
Relative Humidity: 10%
Pressure (altimeter): 29.82 in. Hg (1009 hPa)
Pressure tendency: 0.04 inches (1.3 hPa) lower than three hours ago
ob: KBUR 182353Z 16006KT 10SM FU CLR 35/M01 A2982 RMK AO2 SLP084 T03501006 10367 20311 56013
cycle: 0

Station Type Date Time Source
KBUR TAF 2020/09/18 18:48 UTC NOAA

TAF KBUR 181737Z 1818/1918 VRB05KT P6SM BKN150
FM182000 17008KT P6SM SCT150
FM190400 VRB05KT P6SM SCT150

Example: see airport list